createdAt,value
2018-07-12T00:02:00.327Z,9.63
2018-07-12T00:04:27.744Z,9.00
2018-07-12T00:06:55.313Z,9.73
2018-07-12T00:09:22.779Z,9.37
2018-07-12T00:11:50.228Z,9.27
2018-07-12T00:14:17.735Z,8.50
2018-07-12T00:16:45.412Z,9.97
2018-07-12T00:19:12.852Z,10.27
2018-07-12T00:21:40.283Z,10.57
2018-07-12T00:24:07.739Z,10.70
2018-07-12T00:26:35.201Z,10.80
2018-07-12T00:29:02.641Z,10.80
2018-07-12T00:31:30.126Z,11.53
2018-07-12T00:33:57.590Z,12.00
2018-07-12T00:36:25.054Z,12.43
2018-07-12T00:38:52.493Z,12.37
2018-07-12T00:41:19.930Z,12.07
2018-07-12T00:43:47.399Z,11.57
2018-07-12T00:46:14.900Z,11.27
2018-07-12T00:48:42.363Z,11.77
2018-07-12T00:51:09.824Z,11.20
2018-07-12T00:53:37.282Z,11.83
2018-07-12T00:56:04.740Z,12.53
2018-07-12T00:58:32.170Z,11.47
2018-07-12T01:00:59.615Z,12.57
2018-07-12T01:03:27.076Z,12.17
2018-07-12T01:05:54.517Z,12.40
2018-07-12T01:08:21.978Z,11.50
2018-07-12T01:10:49.407Z,12.10
2018-07-12T01:13:16.820Z,11.00
2018-07-12T01:15:44.289Z,12.60
2018-07-12T01:18:11.714Z,11.57
2018-07-12T01:20:39.179Z,11.33
2018-07-12T01:23:06.878Z,11.23
2018-07-12T01:25:34.294Z,10.60
2018-07-12T01:28:01.747Z,11.47
2018-07-12T01:30:29.214Z,10.80
2018-07-12T01:32:56.681Z,10.77
2018-07-12T01:35:24.104Z,11.10
2018-07-12T01:37:51.572Z,9.13
2018-07-12T01:40:19.014Z,9.77
2018-07-12T01:42:46.435Z,9.17
2018-07-12T01:45:13.906Z,10.30
2018-07-12T01:47:41.329Z,9.50
2018-07-12T01:50:08.768Z,9.97
2018-07-12T01:52:36.229Z,10.03
2018-07-12T01:55:03.642Z,9.57
2018-07-12T01:57:31.113Z,9.80
2018-07-12T01:59:58.535Z,9.93
2018-07-12T02:02:25.962Z,10.03
2018-07-12T02:07:27.487Z,9.80
2018-07-12T02:09:54.941Z,9.57
2018-07-12T02:12:22.449Z,10.17
2018-07-12T02:14:49.894Z,9.93
2018-07-12T02:17:17.317Z,12.07
2018-07-12T02:19:44.759Z,10.27
2018-07-12T02:22:12.203Z,11.47
2018-07-12T02:24:39.641Z,10.33
2018-07-12T02:27:07.085Z,10.50
2018-07-12T02:29:34.504Z,10.43
2018-07-12T02:32:01.953Z,10.30
2018-07-12T02:34:29.374Z,10.60
2018-07-12T02:36:56.799Z,10.10
2018-07-12T02:39:24.267Z,9.83
2018-07-12T02:41:51.707Z,11.30
2018-07-12T02:44:19.165Z,9.73
2018-07-12T02:46:46.596Z,9.23
2018-07-12T02:49:14.268Z,9.77
2018-07-12T02:51:41.703Z,9.77
2018-07-12T02:54:09.118Z,8.63
2018-07-12T02:56:36.569Z,9.57
2018-07-12T02:59:04.120Z,9.53
2018-07-12T03:01:31.600Z,9.57
2018-07-12T03:03:59.096Z,9.77
2018-07-12T03:06:26.707Z,9.50
2018-07-12T03:08:54.137Z,9.30
2018-07-12T03:11:21.563Z,9.17
2018-07-12T03:13:49.034Z,8.77
2018-07-12T03:16:16.464Z,8.53
2018-07-12T03:18:43.910Z,8.80
2018-07-12T03:21:11.331Z,10.13
2018-07-12T03:23:38.793Z,8.67
2018-07-12T03:26:06.231Z,8.90
2018-07-12T03:28:33.666Z,8.87
2018-07-12T03:31:01.134Z,8.67
2018-07-12T03:33:28.549Z,8.37
2018-07-12T03:35:55.999Z,8.57
2018-07-12T03:38:23.446Z,8.67
2018-07-12T03:40:51.335Z,8.77
2018-07-12T03:43:18.749Z,9.07
2018-07-12T03:45:46.201Z,9.23
2018-07-12T03:48:13.728Z,8.77
2018-07-12T03:50:41.145Z,8.00
2018-07-12T03:53:08.625Z,9.17
2018-07-12T03:55:36.073Z,9.13
2018-07-12T03:58:03.536Z,9.20
2018-07-12T04:00:31.002Z,9.03
2018-07-12T04:02:58.414Z,8.30
2018-07-12T04:05:25.857Z,8.83
2018-07-12T04:07:53.282Z,8.90
2018-07-12T04:10:20.729Z,8.00
2018-07-12T04:12:48.201Z,8.63
2018-07-12T04:15:15.638Z,8.47
2018-07-12T04:17:43.090Z,8.57
2018-07-12T04:20:10.527Z,8.23
2018-07-12T04:22:37.996Z,8.00
2018-07-12T04:25:05.578Z,9.00
2018-07-12T04:27:33.002Z,8.60
2018-07-12T04:30:00.916Z,8.73
2018-07-12T04:32:28.341Z,8.63
2018-07-12T04:34:55.799Z,8.07
2018-07-12T04:37:23.237Z,8.17
2018-07-12T04:39:50.646Z,8.17
2018-07-12T04:42:18.085Z,8.27
2018-07-12T04:44:45.508Z,8.80
2018-07-12T04:47:12.961Z,8.63
2018-07-12T04:49:40.402Z,9.23
2018-07-12T04:52:07.835Z,10.00
2018-07-12T04:54:35.306Z,9.33
2018-07-12T04:57:02.745Z,9.53
2018-07-12T04:59:30.223Z,10.30
2018-07-12T05:01:57.643Z,10.33
2018-07-12T05:04:25.072Z,10.60
2018-07-12T05:06:52.717Z,11.37
2018-07-12T05:09:20.153Z,11.23
2018-07-12T05:11:47.889Z,10.33
2018-07-12T05:14:15.637Z,10.60
2018-07-12T05:16:43.317Z,11.93
2018-07-12T05:19:11.028Z,11.87
2018-07-12T05:21:38.462Z,12.33
2018-07-12T05:24:05.910Z,13.63
2018-07-12T05:26:33.337Z,14.03
2018-07-12T05:29:00.765Z,16.27
2018-07-12T05:31:28.192Z,15.30
2018-07-12T05:33:55.618Z,14.50
2018-07-12T05:37:04.069Z,15.40
2018-07-12T05:39:32.713Z,14.37
2018-07-12T05:42:01.394Z,14.83
2018-07-12T05:44:30.523Z,15.10
2018-07-12T05:46:59.651Z,14.90
2018-07-12T05:49:28.881Z,13.93
2018-07-12T05:51:57.533Z,15.10
2018-07-12T05:54:26.712Z,14.50
2018-07-12T05:56:55.887Z,14.37
2018-07-12T05:59:25.269Z,14.53
2018-07-12T06:02:05.146Z,13.87
2018-07-12T06:04:33.830Z,13.90
2018-07-12T06:07:02.508Z,13.47
2018-07-12T06:09:31.183Z,12.97
2018-07-12T06:11:59.896Z,12.20
2018-07-12T06:14:28.576Z,11.33
2018-07-12T06:16:57.296Z,11.47
2018-07-12T06:19:25.937Z,11.37
2018-07-12T06:21:54.613Z,12.20
2018-07-12T06:24:24.194Z,11.97
2018-07-12T06:26:52.852Z,12.43
2018-07-12T06:29:21.586Z,10.93
2018-07-12T06:31:50.261Z,11.87
2018-07-12T06:34:18.948Z,11.37
2018-07-12T06:36:47.604Z,11.77
2018-07-12T06:39:16.318Z,11.07
2018-07-12T06:41:45.026Z,12.30
2018-07-12T06:44:13.751Z,11.80
2018-07-12T06:46:42.446Z,12.23
2018-07-12T06:49:11.100Z,12.27
2018-07-12T06:51:39.859Z,12.53
2018-07-12T06:54:08.528Z,12.77
2018-07-12T06:56:37.224Z,13.13
2018-07-12T06:59:06.025Z,12.00
2018-07-12T07:01:34.716Z,13.27
2018-07-12T07:04:03.454Z,12.30
2018-07-12T07:06:32.134Z,12.17
2018-07-12T07:09:00.838Z,11.33
2018-07-12T07:11:29.476Z,10.73
2018-07-12T07:13:58.172Z,10.60
2018-07-12T07:16:27.037Z,9.70
2018-07-12T07:18:55.750Z,9.67
2018-07-12T07:21:24.415Z,10.20
2018-07-12T07:23:53.125Z,10.40
2018-07-12T07:26:21.865Z,10.97
2018-07-12T07:28:50.514Z,11.43
2018-07-12T07:31:19.193Z,11.27
2018-07-12T07:33:47.864Z,10.97
2018-07-12T07:36:16.601Z,12.00
2018-07-12T07:38:45.772Z,12.53
2018-07-12T07:41:14.678Z,11.17
2018-07-12T07:43:43.549Z,13.63
2018-07-12T07:46:12.249Z,12.23
2018-07-12T07:48:40.910Z,12.70
2018-07-12T07:51:10.033Z,12.23
2018-07-12T07:53:38.901Z,11.57
2018-07-12T07:56:07.768Z,12.07
2018-07-12T07:58:36.455Z,11.53
2018-07-12T08:01:05.125Z,11.63
2018-07-12T08:03:33.829Z,13.07
2018-07-12T08:06:02.511Z,12.00
2018-07-12T08:08:31.181Z,12.03
2018-07-12T08:10:59.879Z,11.50
2018-07-12T08:13:28.557Z,11.47
2018-07-12T08:15:57.220Z,10.73
2018-07-12T08:18:34.706Z,10.30
2018-07-12T08:21:03.742Z,11.23
2018-07-12T08:23:32.443Z,11.87
2018-07-12T08:26:01.124Z,11.27
2018-07-12T08:28:30.474Z,10.07
2018-07-12T08:30:59.215Z,11.03
2018-07-12T08:33:27.968Z,10.93
2018-07-12T08:35:56.631Z,9.70
2018-07-12T08:38:25.351Z,9.63
2018-07-12T08:40:54.131Z,9.50
2018-07-12T08:43:23.806Z,10.30
2018-07-12T08:45:52.514Z,8.90
2018-07-12T08:48:21.231Z,9.77
2018-07-12T08:50:49.950Z,9.87
2018-07-12T08:53:18.625Z,8.60
2018-07-12T08:55:47.331Z,7.60
2018-07-12T08:58:15.994Z,7.03
2018-07-12T09:00:44.678Z,7.27
2018-07-12T09:03:13.369Z,7.53
2018-07-12T09:05:42.065Z,7.30
2018-07-12T09:08:10.782Z,6.80
2018-07-12T09:10:39.456Z,7.20
2018-07-12T09:13:08.186Z,7.13
2018-07-12T09:15:36.857Z,8.37
2018-07-12T09:18:05.598Z,7.53
2018-07-12T09:20:34.248Z,6.63
2018-07-12T09:23:02.943Z,6.77
2018-07-12T09:25:31.672Z,6.87
2018-07-12T09:28:00.322Z,7.37
2018-07-12T09:30:29.006Z,7.83
2018-07-12T09:32:57.694Z,7.73
2018-07-12T09:35:26.380Z,7.27
2018-07-12T09:37:55.100Z,8.73
2018-07-12T09:40:23.798Z,8.30
2018-07-12T09:42:52.535Z,7.53
2018-07-12T09:45:21.215Z,6.97
2018-07-12T09:47:49.918Z,6.37
2018-07-12T09:50:18.585Z,6.43
2018-07-12T09:52:47.299Z,6.07
2018-07-12T09:55:15.985Z,6.63
2018-07-12T09:57:55.761Z,6.87
2018-07-12T10:02:38.497Z,6.60
2018-07-12T10:06:13.933Z,5.70
2018-07-12T10:08:47.861Z,4.50
2018-07-12T10:11:21.991Z,5.33
2018-07-12T10:14:59.630Z,4.50
2018-07-12T10:17:33.550Z,5.07
2018-07-12T10:20:03.802Z,5.37
2018-07-12T10:22:32.526Z,4.40
2018-07-12T10:25:01.225Z,4.50
2018-07-12T10:27:30.010Z,4.33
2018-07-12T10:29:58.754Z,4.30
2018-07-12T10:32:27.440Z,4.90
2018-07-12T10:34:56.134Z,4.43
2018-07-12T10:37:24.807Z,5.00
2018-07-12T10:39:53.451Z,4.60
2018-07-12T10:42:23.673Z,3.90
2018-07-12T10:44:52.904Z,5.13
2018-07-12T10:47:22.073Z,3.93
2018-07-12T10:49:50.785Z,4.00
2018-07-12T10:52:19.462Z,3.93
2018-07-12T10:54:48.165Z,4.93
2018-07-12T10:57:16.880Z,4.27
2018-07-12T10:59:45.555Z,4.07
2018-07-12T11:02:14.272Z,4.40
2018-07-12T11:04:42.963Z,4.47
2018-07-12T11:07:11.680Z,4.07
2018-07-12T11:09:40.388Z,3.70
2018-07-12T11:12:09.110Z,3.97
2018-07-12T11:14:37.791Z,3.40
2018-07-12T11:17:06.497Z,3.67
2018-07-12T11:19:35.218Z,4.10
2018-07-12T11:22:03.916Z,4.27
2018-07-12T11:24:32.618Z,3.93
2018-07-12T11:27:01.292Z,3.20
2018-07-12T11:29:41.021Z,3.33
2018-07-12T11:32:09.736Z,3.40
2018-07-12T11:34:38.425Z,3.23
2018-07-12T11:37:07.204Z,3.37
2018-07-12T11:39:35.836Z,3.83
2018-07-12T11:42:04.557Z,2.83
2018-07-12T11:44:33.275Z,2.90
2018-07-12T11:47:01.969Z,3.03
2018-07-12T11:49:30.792Z,3.63
2018-07-12T11:51:59.493Z,3.10
2018-07-12T11:54:28.191Z,2.87
2018-07-12T11:56:56.880Z,3.20
2018-07-12T11:59:25.611Z,2.80
2018-07-12T12:01:54.413Z,3.03
2018-07-12T12:04:23.041Z,3.20
2018-07-12T12:06:51.769Z,2.87
2018-07-12T12:09:20.555Z,3.90
2018-07-12T12:11:49.221Z,3.03
2018-07-12T12:14:17.916Z,3.20
2018-07-12T12:16:46.581Z,3.00
2018-07-12T12:19:15.256Z,3.10
2018-07-12T12:21:43.948Z,2.97
2018-07-12T12:24:12.621Z,2.97
2018-07-12T12:26:41.283Z,3.13
2018-07-12T12:29:09.581Z,2.90
2018-07-12T12:31:38.310Z,3.20
2018-07-12T12:34:07.039Z,2.70
2018-07-12T12:36:35.755Z,2.60
2018-07-12T12:39:05.840Z,2.83
2018-07-12T12:41:34.708Z,3.57
2018-07-12T12:44:03.461Z,3.00
2018-07-12T12:46:32.109Z,2.80
2018-07-12T12:49:00.806Z,2.70
2018-07-12T12:51:29.460Z,2.93
2018-07-12T12:53:58.199Z,2.50
2018-07-12T12:56:27.025Z,2.53
2018-07-12T12:58:56.705Z,2.93
2018-07-12T13:01:25.493Z,3.33
2018-07-12T13:03:54.165Z,2.93
2018-07-12T13:06:23.382Z,3.00
2018-07-12T13:08:52.084Z,2.33
2018-07-12T13:11:20.812Z,2.90
2018-07-12T13:13:49.612Z,2.37
2018-07-12T13:16:18.277Z,2.83
2018-07-12T13:18:46.938Z,2.73
2018-07-12T13:21:15.618Z,2.93
2018-07-12T13:23:44.344Z,2.67
2018-07-12T13:26:13.042Z,2.70
2018-07-12T13:28:41.793Z,2.30
2018-07-12T13:31:10.504Z,2.40
2018-07-12T13:33:39.173Z,2.57
2018-07-12T13:36:07.900Z,2.27
2018-07-12T13:38:36.590Z,2.93
2018-07-12T13:41:05.310Z,2.13
2018-07-12T13:43:34.022Z,2.87
2018-07-12T13:46:02.741Z,2.40
2018-07-12T13:48:31.433Z,2.40
2018-07-12T13:51:00.115Z,2.20
2018-07-12T13:53:28.782Z,2.77
2018-07-12T13:55:57.455Z,2.50
2018-07-12T13:58:26.185Z,2.70
2018-07-12T14:00:54.873Z,2.17
2018-07-12T14:03:23.828Z,2.13
2018-07-12T14:05:52.521Z,2.17
2018-07-12T14:08:21.212Z,2.43
2018-07-12T14:10:49.934Z,2.40
2018-07-12T14:13:18.628Z,2.50
2018-07-12T14:15:47.318Z,4.13
2018-07-12T14:18:15.970Z,2.80
2018-07-12T14:20:44.689Z,2.93
2018-07-12T14:23:13.366Z,2.57
2018-07-12T14:25:42.057Z,1.90
2018-07-12T14:28:10.733Z,2.50
2018-07-12T14:30:39.409Z,3.00
2018-07-12T14:33:08.148Z,2.47
2018-07-12T14:35:36.872Z,2.40
2018-07-12T14:38:05.601Z,2.63
2018-07-12T14:40:34.282Z,2.13
2018-07-12T14:43:02.930Z,2.43
2018-07-12T14:45:31.611Z,2.27
2018-07-12T14:48:00.296Z,2.47
2018-07-12T14:50:35.471Z,2.37
2018-07-12T14:53:04.128Z,2.30
2018-07-12T14:55:32.861Z,2.43
2018-07-12T14:58:01.540Z,3.00
2018-07-12T15:00:30.223Z,2.57
2018-07-12T15:02:58.989Z,2.60
2018-07-12T15:05:27.625Z,2.60
2018-07-12T15:07:56.435Z,2.80
2018-07-12T15:10:25.109Z,2.83
2018-07-12T15:12:54.220Z,2.63
2018-07-12T15:15:22.865Z,2.37
2018-07-12T15:17:51.509Z,2.53
2018-07-12T15:20:20.227Z,2.50
2018-07-12T15:22:48.868Z,3.13
2018-07-12T15:25:17.569Z,2.37
2018-07-12T15:27:46.229Z,2.20
2018-07-12T15:30:14.962Z,2.77
2018-07-12T15:32:43.618Z,2.80
2018-07-12T15:35:12.283Z,2.57
2018-07-12T15:37:40.984Z,2.27
2018-07-12T15:40:09.672Z,2.07
2018-07-12T15:42:38.348Z,2.47
2018-07-12T15:45:07.015Z,2.50
2018-07-12T15:47:35.873Z,2.50
2018-07-12T15:50:04.608Z,2.47
2018-07-12T15:52:33.307Z,2.20
2018-07-12T15:55:02.010Z,2.00
2018-07-12T15:57:31.010Z,2.63
2018-07-12T15:59:59.721Z,2.03
2018-07-12T16:02:28.353Z,2.40
2018-07-12T16:04:57.038Z,2.20
2018-07-12T16:07:25.670Z,2.00
2018-07-12T16:09:54.303Z,2.10
2018-07-12T16:12:23.002Z,2.30
2018-07-12T16:14:51.650Z,2.43
2018-07-12T16:17:20.323Z,2.07
2018-07-12T16:19:48.936Z,2.00
2018-07-12T16:22:17.621Z,1.97
2018-07-12T16:24:46.285Z,2.30
2018-07-12T16:27:14.932Z,2.20
2018-07-12T16:29:43.614Z,2.20
2018-07-12T16:32:12.276Z,2.10
2018-07-12T16:34:40.957Z,2.17
2018-07-12T16:37:09.703Z,2.20
2018-07-12T16:39:38.470Z,2.30
2018-07-12T16:42:07.159Z,1.80
2018-07-12T16:44:35.841Z,2.13
2018-07-12T16:47:04.734Z,2.00
2018-07-12T16:49:33.846Z,2.13
2018-07-12T16:52:02.525Z,2.30
2018-07-12T16:54:31.253Z,2.00
2018-07-12T16:56:59.852Z,2.03
2018-07-12T16:59:28.514Z,1.90
2018-07-12T17:01:57.189Z,1.80
2018-07-12T17:04:25.868Z,2.20
2018-07-12T17:06:54.545Z,1.83
2018-07-12T17:09:23.589Z,2.33
2018-07-12T17:11:52.632Z,2.10
2018-07-12T17:14:21.286Z,2.53
2018-07-12T17:16:49.946Z,1.90
2018-07-12T17:19:18.589Z,2.53
2018-07-12T17:21:47.285Z,2.07
2018-07-12T17:24:16.243Z,1.90
2018-07-12T17:26:44.908Z,2.53
2018-07-12T17:29:13.623Z,2.20
2018-07-12T17:31:42.285Z,2.30
2018-07-12T17:34:10.954Z,2.27
2018-07-12T17:36:39.608Z,2.03
2018-07-12T17:39:09.081Z,2.47
2018-07-12T17:41:37.825Z,2.13
2018-07-12T17:45:29.384Z,2.37
2018-07-12T17:47:58.077Z,2.13
2018-07-12T17:50:26.774Z,2.10
2018-07-12T17:52:55.438Z,2.10
2018-07-12T17:55:24.122Z,2.80
2018-07-12T17:57:52.780Z,2.30
2018-07-12T18:00:21.496Z,2.50
2018-07-12T18:02:50.729Z,2.30
2018-07-12T18:05:19.445Z,2.20
2018-07-12T18:07:48.105Z,2.60
2018-07-12T18:10:18.070Z,2.60
2018-07-12T18:12:47.234Z,2.60
2018-07-12T18:15:16.018Z,2.37
2018-07-12T18:17:44.758Z,2.30
2018-07-12T18:20:13.496Z,2.63
2018-07-12T18:22:43.030Z,2.10
2018-07-12T18:25:11.768Z,2.10
2018-07-12T18:27:40.392Z,2.30
2018-07-12T18:30:09.111Z,2.37
2018-07-12T18:32:37.768Z,2.30
2018-07-12T18:35:06.553Z,2.57
2018-07-12T18:37:36.006Z,2.27
2018-07-12T18:40:04.875Z,2.40
2018-07-12T18:42:33.617Z,2.37
2018-07-12T18:45:02.329Z,2.50
2018-07-12T18:47:31.059Z,2.47
2018-07-12T18:49:59.831Z,2.27
2018-07-12T18:52:28.486Z,2.70
2018-07-12T18:54:57.176Z,2.40
2018-07-12T18:57:25.829Z,2.47
2018-07-12T18:59:57.269Z,2.47
2018-07-12T19:02:25.947Z,2.30
2018-07-12T19:04:54.686Z,2.50
2018-07-12T19:07:23.336Z,2.60
2018-07-12T19:09:52.080Z,3.00
2018-07-12T19:12:20.815Z,2.70
2018-07-12T19:14:49.515Z,2.73
2018-07-12T19:17:18.300Z,2.67
2018-07-12T19:19:46.998Z,2.43
2018-07-12T19:22:15.676Z,3.10
2018-07-12T19:24:44.338Z,2.90
2018-07-12T19:27:13.046Z,2.80
2018-07-12T19:29:41.706Z,3.23
2018-07-12T19:32:10.351Z,2.77
2018-07-12T19:34:39.111Z,2.90
2018-07-12T19:37:07.816Z,2.83
2018-07-12T19:39:36.545Z,2.77
2018-07-12T19:42:05.714Z,2.40
2018-07-12T19:44:34.374Z,2.60
2018-07-12T19:47:03.162Z,2.70
2018-07-12T19:49:31.914Z,2.90
2018-07-12T19:52:00.649Z,2.97
2018-07-12T19:54:29.578Z,2.77
2018-07-12T19:56:58.870Z,3.07
2018-07-12T19:59:27.593Z,2.93
2018-07-12T20:02:02.654Z,2.90
2018-07-12T20:04:31.481Z,2.80
2018-07-12T20:07:00.162Z,2.97
2018-07-12T20:09:28.833Z,2.77
2018-07-12T20:11:57.505Z,2.90
2018-07-12T20:14:26.148Z,3.30
2018-07-12T20:16:54.837Z,3.07
2018-07-12T20:19:23.480Z,2.70
2018-07-12T20:21:52.155Z,3.37
2018-07-12T20:24:20.836Z,3.10
2018-07-12T20:26:49.737Z,3.43
2018-07-12T20:29:18.445Z,3.40
2018-07-12T20:31:47.114Z,3.20
2018-07-12T20:34:15.805Z,3.40
2018-07-12T20:36:44.463Z,3.20
2018-07-12T20:39:13.252Z,3.20
2018-07-12T20:41:41.938Z,3.20
2018-07-12T20:44:10.592Z,3.27
2018-07-12T20:46:39.337Z,3.23
2018-07-12T20:49:08.051Z,3.40
2018-07-12T20:51:36.725Z,2.70
2018-07-12T20:54:05.380Z,3.20
2018-07-12T20:56:34.054Z,3.30
2018-07-12T20:59:02.977Z,2.73
2018-07-12T21:01:31.631Z,3.00
2018-07-12T21:04:00.352Z,2.83
2018-07-12T21:06:29.018Z,2.90
2018-07-12T21:08:57.737Z,3.10
2018-07-12T21:11:26.018Z,3.17
2018-07-12T21:13:54.710Z,3.17
2018-07-12T21:16:23.396Z,3.53
2018-07-12T21:18:52.063Z,2.90
2018-07-12T21:21:20.720Z,3.07
2018-07-12T21:23:52.346Z,3.17
2018-07-12T21:26:21.045Z,3.10
2018-07-12T21:28:49.718Z,3.40
2018-07-12T21:31:18.429Z,2.80
2018-07-12T21:33:47.154Z,3.10
2018-07-12T21:36:15.841Z,3.10
2018-07-12T21:38:44.560Z,3.07
2018-07-12T21:41:13.239Z,2.93
2018-07-12T21:43:41.953Z,3.17
2018-07-12T21:46:10.637Z,3.60
2018-07-12T21:48:45.705Z,3.40
2018-07-12T21:51:14.413Z,3.23
2018-07-12T21:53:43.038Z,4.37
2018-07-12T21:56:11.684Z,3.50
2018-07-12T21:58:40.346Z,3.87
2018-07-12T22:01:09.092Z,3.27
2018-07-12T22:03:37.797Z,3.50
2018-07-12T22:06:06.469Z,3.40
2018-07-12T22:08:35.157Z,3.40
2018-07-12T22:11:05.003Z,3.43
2018-07-12T22:13:34.986Z,3.80
2018-07-12T22:16:03.653Z,3.37
2018-07-12T22:18:32.400Z,3.67
2018-07-12T22:21:01.092Z,3.73
2018-07-12T22:23:29.814Z,3.60
2018-07-12T22:25:58.517Z,3.83
2018-07-12T22:28:27.170Z,3.57
2018-07-12T22:30:55.853Z,3.77
2018-07-12T22:33:24.499Z,3.70
2018-07-12T22:35:53.141Z,3.90
2018-07-12T22:38:21.877Z,3.40
2018-07-12T22:40:50.514Z,3.80
2018-07-12T22:43:19.198Z,3.73
2018-07-12T22:45:47.870Z,3.73
2018-07-12T22:48:16.556Z,3.80
2018-07-12T22:50:45.217Z,4.00
2018-07-12T22:53:13.932Z,3.70
2018-07-12T22:55:42.573Z,3.70
2018-07-12T22:58:11.221Z,4.20
2018-07-12T23:00:39.925Z,4.20
2018-07-12T23:03:08.692Z,3.63
2018-07-12T23:05:37.381Z,3.90
2018-07-12T23:08:06.062Z,4.43
2018-07-12T23:10:34.751Z,4.57
2018-07-12T23:13:03.378Z,7.30
2018-07-12T23:15:32.094Z,4.60
2018-07-12T23:18:00.736Z,4.57
2018-07-12T23:20:29.393Z,4.40
2018-07-12T23:22:58.035Z,3.80
2018-07-12T23:25:26.758Z,3.93
2018-07-12T23:27:55.411Z,4.03
2018-07-12T23:30:24.113Z,3.77
2018-07-12T23:32:52.757Z,4.33
2018-07-12T23:35:21.442Z,4.33
2018-07-12T23:37:50.130Z,4.40
2018-07-12T23:40:18.824Z,4.07
2018-07-12T23:42:48.162Z,4.07
2018-07-12T23:45:16.949Z,3.80
2018-07-12T23:47:45.541Z,4.40
2018-07-12T23:50:14.194Z,4.47
2018-07-12T23:52:42.847Z,4.00
2018-07-12T23:55:11.508Z,3.47
2018-07-12T23:57:40.156Z,4.13
